createdAt,value
2022-08-18T00:01:55.012Z,12.13
2022-08-18T00:04:34.910Z,15.60
2022-08-18T00:07:03.970Z,15.95
2022-08-18T00:09:32.821Z,13.18
2022-08-18T00:12:00.948Z,18.02
2022-08-18T00:14:27.594Z,13.18
2022-08-18T00:16:54.630Z,17.30
2022-08-18T00:19:43.551Z,15.05
2022-08-18T00:22:14.583Z,15.40
2022-08-18T00:24:47.895Z,22.92
2022-08-18T00:27:18.739Z,18.00
2022-08-18T00:29:45.553Z,22.25
2022-08-18T00:32:14.100Z,27.88
2022-08-18T00:34:40.820Z,24.80
2022-08-18T00:37:07.702Z,47.67
2022-08-18T00:39:38.444Z,36.35
2022-08-18T00:42:14.217Z,18.48
2022-08-18T00:44:56.344Z,14.73
2022-08-18T00:47:33.147Z,16.58
2022-08-18T00:50:14.435Z,17.27
2022-08-18T00:52:49.282Z,25.23
2022-08-18T00:55:18.210Z,34.10
2022-08-18T00:57:47.010Z,21.70
2022-08-18T01:00:14.988Z,21.40
2022-08-18T01:02:46.767Z,49.72
2022-08-18T01:05:14.652Z,34.67
2022-08-18T01:07:46.207Z,28.75
2022-08-18T01:10:17.013Z,29.52
2022-08-18T01:12:46.681Z,36.47
2022-08-18T01:15:29.051Z,52.47
2022-08-18T01:18:16.843Z,30.63
2022-08-18T01:21:14.349Z,29.15
2022-08-18T01:23:41.238Z,21.63
2022-08-18T01:26:09.393Z,42.78
2022-08-18T01:28:38.160Z,40.10
2022-08-18T01:31:04.984Z,39.15
2022-08-18T01:33:33.602Z,51.50
2022-08-18T01:36:03.443Z,50.30
2022-08-18T01:38:32.154Z,51.75
2022-08-18T01:41:25.814Z,53.00
2022-08-18T01:43:46.591Z,59.42
2022-08-18T01:46:20.324Z,54.42
2022-08-18T01:48:48.527Z,47.70
2022-08-18T01:51:15.592Z,49.78
2022-08-18T01:53:42.175Z,51.15
2022-08-18T01:56:09.270Z,55.88
2022-08-18T01:58:36.227Z,60.30
2022-08-18T02:01:03.472Z,60.97
2022-08-18T02:03:32.958Z,42.92
2022-08-18T02:06:00.938Z,41.20
2022-08-18T02:08:28.190Z,55.65
2022-08-18T02:10:58.326Z,40.47
2022-08-18T02:13:25.699Z,48.60
2022-08-18T02:15:52.574Z,42.60
2022-08-18T02:18:25.078Z,53.50
2022-08-18T02:21:13.981Z,61.88
2022-08-18T02:23:53.958Z,57.78
2022-08-18T02:26:21.267Z,48.15
2022-08-18T02:28:47.971Z,38.67
2022-08-18T02:31:16.133Z,46.13
2022-08-18T02:33:46.979Z,27.00
2022-08-18T02:36:19.297Z,21.02
2022-08-18T02:38:46.080Z,29.40
2022-08-18T02:41:24.111Z,19.95
2022-08-18T02:43:50.795Z,24.85
2022-08-18T02:46:17.823Z,25.85
2022-08-18T02:48:44.404Z,22.17
2022-08-18T02:51:12.451Z,18.65
2022-08-18T02:53:40.441Z,20.08
2022-08-18T02:56:40.925Z,25.42
2022-08-18T02:59:14.936Z,26.02
2022-08-18T03:01:43.097Z,25.20
2022-08-18T03:04:11.107Z,27.13
2022-08-18T03:06:38.749Z,24.63
2022-08-18T03:09:06.009Z,23.33
2022-08-18T03:11:32.567Z,22.27
2022-08-18T03:14:01.634Z,22.85
2022-08-18T03:16:32.779Z,17.92
2022-08-18T03:19:00.759Z,20.15
2022-08-18T03:21:28.373Z,16.58
2022-08-18T03:24:00.859Z,23.13
2022-08-18T03:26:29.890Z,38.40
2022-08-18T03:28:57.857Z,23.60
2022-08-18T03:31:25.336Z,20.95
2022-08-18T03:33:56.069Z,17.75
2022-08-18T03:36:27.615Z,19.20
2022-08-18T03:38:54.503Z,16.02
2022-08-18T03:41:44.449Z,15.48
2022-08-18T03:44:14.425Z,17.05
2022-08-18T03:46:42.083Z,16.77
2022-08-18T03:49:09.589Z,13.70
2022-08-18T03:51:37.553Z,17.45
2022-08-18T03:54:04.835Z,15.18
2022-08-18T03:56:35.689Z,14.73
2022-08-18T03:59:04.863Z,20.58
2022-08-18T04:01:36.073Z,17.15
2022-08-18T04:04:04.160Z,18.48
2022-08-18T04:06:33.727Z,16.92
2022-08-18T04:09:01.357Z,19.58
2022-08-18T04:11:33.620Z,19.08
2022-08-18T04:14:04.588Z,16.73
2022-08-18T04:16:38.338Z,16.20
2022-08-18T04:19:05.697Z,21.85
2022-08-18T04:21:33.177Z,34.72
2022-08-18T04:24:04.909Z,18.05
2022-08-18T04:26:32.805Z,17.83
2022-08-18T04:29:01.478Z,17.33
2022-08-18T04:31:32.054Z,21.60
2022-08-18T04:33:59.454Z,24.98
2022-08-18T04:36:28.364Z,24.52
2022-08-18T04:38:56.645Z,32.08
2022-08-18T04:41:27.872Z,26.50
2022-08-18T04:43:55.789Z,25.08
2022-08-18T04:46:24.263Z,18.35
2022-08-18T04:48:51.304Z,15.55
2022-08-18T04:52:36.715Z,17.35
2022-08-18T04:54:05.579Z,16.83
2022-08-18T04:56:34.833Z,15.23
2022-08-18T04:59:03.155Z,23.33
2022-08-18T05:01:37.423Z,19.52
2022-08-18T05:04:04.474Z,28.60
2022-08-18T05:06:31.515Z,28.55
2022-08-18T05:09:00.207Z,30.88
2022-08-18T05:11:37.334Z,31.27
2022-08-18T05:14:06.327Z,44.83
2022-08-18T05:16:36.027Z,35.72
2022-08-18T05:19:06.875Z,24.65
2022-08-18T05:21:37.350Z,23.10
2022-08-18T05:24:05.692Z,41.80
2022-08-18T05:26:32.347Z,43.40
2022-08-18T05:29:18.039Z,36.25
2022-08-18T05:31:46.304Z,19.00
2022-08-18T05:34:15.614Z,22.92
2022-08-18T05:36:51.932Z,22.02
2022-08-18T05:39:21.278Z,32.92
2022-08-18T05:41:53.742Z,18.48
2022-08-18T05:44:25.015Z,23.25
2022-08-18T05:46:53.527Z,24.17
2022-08-18T05:49:20.896Z,39.50
2022-08-18T05:51:56.871Z,30.35
2022-08-18T05:54:45.433Z,40.05
2022-08-18T05:57:22.658Z,34.83
2022-08-18T05:59:52.287Z,36.45
2022-08-18T06:02:33.549Z,18.23
2022-08-18T06:05:01.709Z,18.77
2022-08-18T06:07:36.779Z,23.75
2022-08-18T06:10:05.209Z,23.48
2022-08-18T06:12:37.429Z,21.73
2022-08-18T06:15:10.292Z,17.70
2022-08-18T06:17:52.350Z,43.10
2022-08-18T06:20:19.017Z,25.27
2022-08-18T06:23:04.293Z,16.70
2022-08-18T06:25:34.648Z,15.02
2022-08-18T06:28:03.628Z,13.88
2022-08-18T06:30:42.622Z,13.80
2022-08-18T06:33:09.301Z,13.82
2022-08-18T06:35:37.550Z,14.27
2022-08-18T06:38:40.746Z,14.25
2022-08-18T06:41:41.446Z,12.98
2022-08-18T06:44:02.383Z,12.65
2022-08-18T06:46:35.772Z,12.52
2022-08-18T06:49:04.665Z,13.20
2022-08-18T06:51:31.468Z,12.95
2022-08-18T06:54:02.548Z,14.38
2022-08-18T06:56:38.290Z,14.07
2022-08-18T06:59:14.313Z,13.98
2022-08-18T07:01:41.117Z,13.07
2022-08-18T07:04:07.745Z,12.95
2022-08-18T07:06:34.430Z,13.45
2022-08-18T07:09:20.970Z,14.38
2022-08-18T07:12:02.127Z,15.48
2022-08-18T07:14:28.790Z,13.95
2022-08-18T07:17:10.280Z,13.82
2022-08-18T07:19:36.929Z,14.85
2022-08-18T07:22:08.531Z,13.50
2022-08-18T07:24:43.425Z,13.73
2022-08-18T07:27:15.459Z,15.10
2022-08-18T07:29:59.543Z,14.73
2022-08-18T07:32:47.170Z,13.57
2022-08-18T07:35:17.562Z,14.25
2022-08-18T07:37:50.710Z,14.88
2022-08-18T07:40:32.827Z,14.40
2022-08-18T07:43:06.243Z,13.35
2022-08-18T07:45:46.712Z,13.75
2022-08-18T07:48:37.211Z,12.35
2022-08-18T07:51:08.893Z,12.93
2022-08-18T07:53:42.417Z,11.95
2022-08-18T07:56:26.341Z,12.25
2022-08-18T07:59:19.274Z,10.88
2022-08-18T08:02:06.433Z,11.73
2022-08-18T08:04:47.722Z,11.95
2022-08-18T08:07:24.895Z,10.38
2022-08-18T08:10:24.262Z,11.43
2022-08-18T08:13:08.798Z,11.68
2022-08-18T08:15:36.314Z,11.45
2022-08-18T08:18:02.860Z,10.90
2022-08-18T08:20:35.714Z,10.25
2022-08-18T08:23:05.807Z,10.85
2022-08-18T08:25:50.857Z,10.93
2022-08-18T08:28:23.375Z,9.85
2022-08-18T08:30:50.016Z,10.68
2022-08-18T08:33:27.555Z,10.70
2022-08-18T08:36:14.463Z,10.60
2022-08-18T08:38:44.597Z,10.80
2022-08-18T08:41:34.386Z,10.40
2022-08-18T08:44:14.732Z,9.63
2022-08-18T08:46:47.195Z,9.60
2022-08-18T08:50:00.444Z,9.05
2022-08-18T08:52:40.416Z,10.10
2022-08-18T08:55:18.834Z,8.98
2022-08-18T08:58:03.056Z,9.10
2022-08-18T09:00:30.075Z,9.55
2022-08-18T09:03:15.366Z,9.52
2022-08-18T09:05:56.902Z,9.80
2022-08-18T09:08:29.775Z,9.52
2022-08-18T09:10:57.488Z,9.57
2022-08-18T09:13:42.622Z,9.68
2022-08-18T09:16:29.610Z,9.65
2022-08-18T09:19:15.888Z,8.65
2022-08-18T09:22:00.963Z,9.10
2022-08-18T09:24:47.205Z,8.90
2022-08-18T09:27:22.809Z,8.70
2022-08-18T09:29:49.486Z,8.65
2022-08-18T09:32:19.095Z,8.98
2022-08-18T09:34:46.234Z,8.75
2022-08-18T09:37:18.051Z,8.45
2022-08-18T09:40:44.475Z,8.50
2022-08-18T09:43:10.000Z,8.32
2022-08-18T09:46:04.715Z,9.35
2022-08-18T09:48:31.735Z,8.10
2022-08-18T09:51:11.005Z,7.88
2022-08-18T09:53:40.178Z,8.00
2022-08-18T09:56:06.875Z,8.00
2022-08-18T09:58:50.028Z,8.40
2022-08-18T10:01:44.096Z,7.95
2022-08-18T10:04:32.205Z,7.63
2022-08-18T10:07:17.509Z,8.18
2022-08-18T10:09:51.292Z,7.68
2022-08-18T10:15:03.366Z,6.47
2022-08-18T10:17:42.691Z,6.70
2022-08-18T10:20:26.562Z,7.10
2022-08-18T10:22:54.626Z,6.72
2022-08-18T10:25:33.146Z,7.60
2022-08-18T10:28:05.433Z,6.75
2022-08-18T10:30:56.285Z,7.25
2022-08-18T10:33:42.357Z,6.25
2022-08-18T10:36:11.237Z,6.18
2022-08-18T10:38:48.935Z,6.57
2022-08-18T10:41:20.757Z,6.07
2022-08-18T10:46:42.539Z,6.57
2022-08-18T10:49:13.458Z,6.97
2022-08-18T10:52:00.011Z,7.18
2022-08-18T10:55:00.080Z,7.05
2022-08-18T10:57:32.685Z,7.63
2022-08-18T11:00:02.375Z,7.40
2022-08-18T11:02:43.711Z,6.97
2022-08-18T11:05:11.759Z,7.18
2022-08-18T11:07:42.990Z,6.72
2022-08-18T11:10:50.549Z,7.25
2022-08-18T11:13:11.126Z,7.50
